logo
App data

LOUD on Planet X

Defend your stage with music in this new indie rhythm game featuring Tegan and Sara, CHVRCHES, Lights, Metric, METZ, F*cked Up, HEALTH, Purity Ring, Little Dragon, Austra, Shad, Cadence Weapon, July Talk, Monomyth and more!
Store | Hub | SteamDB | Site
Developer: Pop Sandbox Publisher: Pop Sandbox
Genre: Action, Casual, Indie
Languages: English
Tags: Casual (22), Indie (22), Action (21)
Category: Single-player, Steam Achievements, Partial Controller Support, Steam Cloud, Steam Leaderboards
Release date: Apr 19, 2016
Price: $7.99
Metascore: 72%
Owners: 0 .. 20,000
Followers: 114

Steam Spy is still in beta, so expect major bugs.

Owners data:

Access restricted.

This feature is only available to users with special access rights. Sorry.

If you want to proceed, you need to register or log in first and then back Steam Spy on Patreon. Look for Indie or Pro pledge.

Don't forget to use the same email as on Steam Spy!

Audience in 2 weeks:

Access restricted.

This feature is only available to users with special access rights. Sorry.

If you want to proceed, you need to register or log in first and then back Steam Spy on Patreon. Look for Indie or Pro pledge.

Don't forget to use the same email as on Steam Spy!

Peak daily concurrent players:

CCU data courtesy of SteamDB. Used with permission.

Hourly concurrent players:

Daily Twitch stats:

Hourly Twitch stats:

YouTube:

The views data is based on top 50 videos uploaded last week. Actual number of views might be more than the number shown.

The displayed number of videos uploaded yesterday is limited to 50, so if there were more videos uploaded, the number will still show 50.

If the game has commonly used word as its name (like "FEAR" or "Volume") its number of Youtube views might be wrong.

Games similar to this one:

# Game Release date
Price
Score rank
(Userscore / Metascore)
Owners
Players
Playtime (Median)
1 Blockwick 2 Jun 25, 2015 $7.99100% (100%)0 .. 20,0002.63%00:12 (00:04)
2 simian.interface++ Jun 26, 2016 $1.99100% (100%)0 .. 20,0000%00:00 (00:00)
3 VR The Diner Duo Nov 2, 2016 $14.9997% (97%)20,000 .. 50,0005%00:32 (00:10)
4 Flat Path Aug 24, 2016 $0.9995% (96%)20,000 .. 50,0000.71%00:52 (00:17)
5 Loot Rascals Mar 7, 2017 $14.9993% (95%/71%)20,000 .. 50,0000%00:00 (00:00)
6 Scarab Tales Jul 1, 2015 $4.99N/A (N/A)20,000 .. 50,0000%00:00 (00:00)
7 Wayout 2: Hex Feb 10, 2017 $0.9990% (94%)20,000 .. 50,0001.23%02:08 (00:42)
8 Pale Echoes Dec 10, 2015 $4.99N/A (N/A)20,000 .. 50,0000%00:00 (00:00)
9 L U N E Jun 20, 2016 $2.99N/A (N/A)0 .. 20,0000%00:00 (00:00)
10 Holopoint Apr 4, 2016 $14.9980% (91%)20,000 .. 50,0004.76%00:11 (00:07)
11 Cubicolor Mar 18, 2016 $1.9977% (90%)0 .. 20,0000%00:00 (00:00)
12 Zen Bound 2 Nov 16, 2010 $4.9977% (90%)200,000 .. 500,0000%00:00 (00:00)
13 RAYGUN COMMANDO VR Jan 23, 2017 Free74% (89%)20,000 .. 50,0000%00:00 (00:00)
14 Color Assembler Jun 3, 2015 $7.99N/A (N/A)0 .. 20,0000%00:00 (00:00)
15 Mahjong World Contest Oct 7, 2016 $4.99N/A (N/A)20,000 .. 50,0000%00:00 (00:00)
16 Safety First! Sep 8, 2016 $2.9966% (86%)0 .. 20,0000%00:00 (00:00)
17 Delicious - Emily's Christmas Carol Nov 4, 2016 $12.9966% (86%)0 .. 20,0000%00:00 (00:00)
18 Kings of Israel Dec 21, 2015 $4.99N/A (N/A)0 .. 20,0000%00:00 (00:00)
19 Curvatron Jan 29, 2016 $0.9956% (82%)20,000 .. 50,0000%00:00 (00:00)
20 Madrobot X Sep 21, 2016 $2.99N/A (N/A)100,000 .. 200,0000%00:00 (00:00)
21 VR Ping Pong Sep 13, 2016 $9.9949% (79%)0 .. 20,0000%00:00 (00:00)
22 Magi Trials Nov 17, 2016 $11.9947% (78%)0 .. 20,0000%00:00 (00:00)
23 Oh No! Bugs! Aug 14, 2016 $1.99N/A (N/A)20,000 .. 50,0000%00:00 (00:00)
24 Fragments of Him May 3, 2016 $9.9945% (77%/69%)0 .. 20,0000%00:00 (00:00)
25 Midnight Jan 28, 2016 $2.9943% (76%)0 .. 20,0000%00:00 (00:00)
26 ConflictCraft Dec 8, 2016 $2.99N/A (N/A)20,000 .. 50,0000%00:00 (00:00)
27 Will of the Gods Aug 29, 2016 $2.99N/A (N/A)0 .. 20,0000%00:00 (00:00)
28 Think To Die 2 Oct 14, 2016 Free40% (74%)0 .. 20,0000%00:00 (00:00)
29 Stage Presence Feb 28, 2017 $9.99N/A (N/A)0 .. 20,0005.88%03:29 (01:09)
30 I Know a Tale Sep 20, 2016 $2.99N/A (N/A)0 .. 20,0000%00:00 (00:00)
31 Anomaly 1729 Dec 30, 2015 $9.99N/A (N/A/49%)0 .. 20,0000%00:00 (00:00)
32 Hover 2030 Jun 14, 2016 $1.9931% (69%)0 .. 20,0000%00:00 (00:00)
33 Space Merchants: Arena Nov 4, 2016 $6.99N/A (N/A)20,000 .. 50,0000%00:00 (00:00)
34 Forgotten Tales: Day of the Dead May 27, 2016 $9.99N/A (N/A)0 .. 20,0000%00:00 (00:00)
35 Solitaire Royale Sep 15, 2016 FreeN/A (N/A)0 .. 20,0000%00:00 (00:00)
36 Minimalism Feb 8, 2017 $0.9927% (66%)200,000 .. 500,0000.26%00:06 (00:02)
37 Moustache Mountain Mar 31, 2016 $1.9927% (66%)0 .. 20,0000%00:00 (00:00)
38 Chamber 19 Oct 21, 2016 $14.99N/A (N/A)0 .. 20,0000%00:00 (00:00)
39 Android John Jun 28, 2016 $0.5N/A (N/A)20,000 .. 50,0000%00:00 (00:00)
40 Sudoku Quest Jun 3, 2016 $5.9920% (60%)0 .. 20,0000%00:00 (00:00)
41 Multimirror Nov 14, 2016 $4.9917% (58%)100,000 .. 200,0000%00:00 (00:00)
42 Simple Ball: Extended Edition Jul 25, 2016 $0.4917% (58%)100,000 .. 200,0000%00:00 (00:00)
43 AVSEQ Aug 23, 2012 $1.99N/A (N/A)20,000 .. 50,0000%00:00 (00:00)
44 Moonlight Minions Oct 22, 2014 $0.99N/A (N/A)0 .. 20,0000%00:00 (00:00)
45 Make America Great Again Sep 15, 2016 $2.99N/A (N/A)0 .. 20,0000%00:00 (00:00)
46 Abduction Action! Plus Sep 1, 2015 $1.99N/A (N/A)0 .. 20,0000%00:00 (00:00)
47 Bathory - The Bloody Countess Jul 6, 2016 $5.99N/A (N/A)0 .. 20,0000%00:00 (00:00)
48 Campfire: One of Us Is the Killer Dec 7, 2016 $2.99N/A (N/A)20,000 .. 50,0000.45%01:31 (00:30)
49 Ghost Cleaner Nov 5, 2015 $5.99N/A (N/A)0 .. 20,0000%00:00 (00:00)
50 Project: R.E.B.O.O.T 2 Jan 27, 2017 $0.99N/A (N/A)50,000 .. 100,0000%00:00 (00:00)
51 Mazement Mar 7, 2016 $4.99N/A (N/A)0 .. 20,0000%00:00 (00:00)
52 Dale Hardshovel HD Sep 22, 2015 $0.99N/A (N/A)20,000 .. 50,0000%00:00 (00:00)
53 Running Gods Sep 13, 2016 $4.99N/A (N/A)20,000 .. 50,0000%00:00 (00:00)
54 Mini Metal Apr 22, 2016 $9.99N/A (N/A)0 .. 20,0000%00:00 (00:00)
55 Battletank LOBA Mar 17, 2015 $9.99N/A (N/A)0 .. 20,0000%00:00 (00:00)
56 Veilia Aug 23, 2016 $3.99N/A (N/A)0 .. 20,0000%00:00 (00:00)
57 Piggy Princess Mar 19, 2016 $3.99N/A (N/A)0 .. 20,0000%00:00 (00:00)
58 Astral Breakers Feb 4, 2016 $4.99N/A (N/A)0 .. 20,0000%00:00 (00:00)
59 Isaac the Adventurer Mar 2, 2015 $2.99N/A (N/A)0 .. 20,0000%00:00 (00:00)
60 Candy Smash VR Jul 26, 2016 $9.99N/A (N/A)0 .. 20,0000%00:00 (00:00)
61 Fly, Glowfly! Jul 8, 2016 $4.99N/A (N/A)0 .. 20,0000%00:00 (00:00)
62 Rotieer Mar 5, 2015 $2.99N/A (N/A)0 .. 20,0000%00:00 (00:00)
63 Solitaire Beach Season Oct 10, 2016 $4.99N/A (N/A)20,000 .. 50,0000%00:00 (00:00)
64 Space Radiance Jun 8, 2016 $1.99N/A (N/A)20,000 .. 50,0000%00:00 (00:00)
65 Project Graviton Feb 15, 2016 $1.99N/A (N/A)0 .. 20,0000%00:00 (00:00)
66 Never Ending Night Sep 30, 2015 $0.99N/A (N/A)0 .. 20,0000%00:00 (00:00)
67 Elems Nov 11, 2016 $0.99N/A (N/A)100,000 .. 200,0000%00:00 (00:00)
68 Shmup Love Boom Sep 18, 2015 $2.99N/A (N/A)0 .. 20,0000%00:00 (00:00)
69 Gold Crusader Nov 22, 2016 $2.99N/A (N/A)0 .. 20,0000%00:00 (00:00)
70 Pinga Ponga Aug 2, 2016 $0.99N/A (N/A)0 .. 20,0000%00:00 (00:00)
71 Vector Assault Dec 10, 2015 $4.99N/A (N/A)0 .. 20,0000%00:00 (00:00)
72 InnerCube Feb 13, 2015 $3.99N/A (N/A)0 .. 20,0000%00:00 (00:00)
73 Rock, the Tree Hugger Jul 30, 2015 $4.99N/A (N/A)0 .. 20,0000%00:00 (00:00)
74 Raycatcher Apr 17, 2009 $4.99N/A (N/A)0 .. 20,0000%00:00 (00:00)
75 Kronos Feb 3, 2017 $4.99N/A (N/A)0 .. 20,0000%00:00 (00:00)
76 Funklift Jun 8, 2016 $9.99N/A (N/A)0 .. 20,0000%00:00 (00:00)
77 The Wizards Who Fell In A Hole Dec 9, 2016 $1.99N/A (N/A)0 .. 20,0000%00:00 (00:00)
78 Leave The Nest May 27, 2016 $2.99N/A (N/A)0 .. 20,0000%00:00 (00:00)
79 Diamond Deeps Jun 1, 2015 $4.99N/A (N/A)0 .. 20,0000%00:00 (00:00)
80 Innoquous 5 May 13, 2016 $2.99N/A (N/A)0 .. 20,0000%00:00 (00:00)
81 Playing History - The Plague Oct 21, 2015 $3.99N/A (N/A)0 .. 20,0000%00:00 (00:00)
82 Mr. Triangle's Adventure Jan 31, 2017 $0.99N/A (N/A)0 .. 20,0000%00:00 (00:00)
83 MAGATAMA Earrings Jun 14, 2016 $6.99N/A (N/A)0 .. 20,0000%00:00 (00:00)
84 Super Intergalactic Gang Jan 15, 2016 $9.99N/A (N/A)0 .. 20,0000%00:00 (00:00)

Tags over time:

Access restricted.

This feature is only available to users with special access rights. Sorry.

If you want to proceed, you need to register or log in first and then back Steam Spy on Patreon. Look for Indie or Pro pledge.

Don't forget to use the same email as on Steam Spy!

Owners of this game also own:

Access restricted.

This feature is only available to users with special access rights. Sorry.

If you want to proceed, you need to register or log in first and then back Steam Spy on Patreon. Look for Indie or Pro pledge.

Don't forget to use the same email as on Steam Spy!

Playtime distribution:

Access restricted.

This feature is only available to users with special access rights. Sorry.

If you want to proceed, you need to register or log in first and then back Steam Spy on Patreon. Look for Indie or Pro pledge.

Don't forget to use the same email as on Steam Spy!

Playtime (2 weeks):

Access restricted.

This feature is only available to users with special access rights. Sorry.

If you want to proceed, you need to register or log in first and then back Steam Spy on Patreon. Look for Indie or Pro pledge.

Don't forget to use the same email as on Steam Spy!

User reviews:

Login required.

Please register or log in to see this information.